Time;durP1;ratioP1;P1;durP2;ratioP2;P2;SDS_P1;SDS_P2;PMS_P1;PMS_P2;Temp;Humidity;BMP_temperature;BMP_pressure;BME280_temperature;BME280_humidity;BME280_pressure;Samples;Min_cycle;Max_cycle;Signal;HPM_P1;HPM_P2
2021/08/19 00:00:40;;;;;;;4.90;3.37;;;;;;;19.77;58.81;94821.72;5075492;28;20872;-80
2021/08/19 00:03:08;;;;;;;3.57;3.27;;;;;;;19.69;58.43;94827.16;5075155;28;20434;-80
2021/08/19 00:05:35;;;;;;;8.57;3.53;;;;;;;19.67;60.21;94820.38;5075386;28;20442;-80
2021/08/19 00:08:02;;;;;;;13.30;3.67;;;;;;;19.69;58.48;94816.50;5075475;28;20570;-80
2021/08/19 00:10:29;;;;;;;3.60;3.10;;;;;;;19.71;58.38;94818.97;5075962;28;20469;-80
2021/08/19 00:12:57;;;;;;;4.03;3.40;;;;;;;19.70;59.84;94820.81;5074928;28;20509;-80
2021/08/19 00:15:24;;;;;;;4.33;3.80;;;;;;;19.80;58.00;94828.50;5074942;28;20888;-80
2021/08/19 00:17:51;;;;;;;3.50;3.20;;;;;;;19.75;57.81;94818.41;5075108;28;20440;-81
2021/08/19 00:20:18;;;;;;;8.77;3.40;;;;;;;19.67;57.95;94818.53;5074805;28;20518;-79
2021/08/19 00:22:45;;;;;;;5.07;3.10;;;;;;;19.67;58.33;94817.72;5075830;28;20986;-80
2021/08/19 00:25:12;;;;;;;6.43;3.70;;;;;;;19.65;58.66;94822.38;5056600;28;20457;-80
2021/08/19 00:27:41;;;;;;;3.47;3.17;;;;;;;19.61;57.88;94813.09;5056719;28;20515;-80
2021/08/19 00:30:11;;;;;;;7.70;3.83;;;;;;;19.71;57.96;94822.47;5075647;28;20465;-80
2021/08/19 00:32:38;;;;;;;4.57;3.40;;;;;;;19.60;58.08;94819.44;5074573;28;20514;-80
2021/08/19 00:35:05;;;;;;;3.10;2.80;;;;;;;19.57;58.11;94822.47;5075130;28;20972;-80
2021/08/19 00:37:33;;;;;;;9.33;3.80;;;;;;;19.65;58.06;94823.19;5074936;28;20526;-80
2021/08/19 00:40:00;;;;;;;4.20;3.90;;;;;;;19.88;58.30;94822.22;5040339;28;20990;-80
2021/08/19 00:42:27;;;;;;;3.60;3.30;;;;;;;19.99;56.73;94829.72;5074452;28;20434;-80
2021/08/19 00:44:54;;;;;;;4.03;3.20;;;;;;;20.05;56.41;94834.28;5074365;28;20440;-80
2021/08/19 00:47:22;;;;;;;4.83;3.20;;;;;;;19.97;56.86;94826.44;5074521;28;20430;-80
2021/08/19 00:49:49;;;;;;;3.60;3.30;;;;;;;19.77;56.30;94820.88;5074199;28;21304;-79
2021/08/19 00:52:17;;;;;;;7.10;2.90;;;;;;;19.67;57.11;94825.69;5074176;28;20444;-80
2021/08/19 00:54:44;;;;;;;4.27;3.23;;;;;;;19.63;58.30;94825.22;5073878;28;20448;-80
2021/08/19 00:57:12;;;;;;;2.73;2.50;;;;;;;19.54;57.11;94823.69;5074006;28;20512;-80
2021/08/19 00:59:40;;;;;;;5.00;3.70;;;;;;;19.48;58.20;94827.06;5074771;28;20515;-80
2021/08/19 01:02:09;;;;;;;4.17;2.50;;;;;;;19.60;57.07;94825.59;5073969;28;20506;-80
2021/08/19 01:04:39;;;;;;;3.70;3.23;;;;;;;19.57;56.81;94827.81;5055804;28;20443;-80
2021/08/19 01:07:06;;;;;;;3.47;3.17;;;;;;;19.53;57.64;94824.69;5073853;28;20482;-80
2021/08/19 01:09:34;;;;;;;7.63;3.37;;;;;;;19.64;58.15;94832.19;5074224;28;20489;-80
2021/08/19 01:12:01;;;;;;;3.90;3.50;;;;;;;19.57;56.20;94823.31;5074796;28;20451;-80
2021/08/19 01:14:28;;;;;;;5.60;3.33;;;;;;;19.74;56.97;94830.06;5055651;28;20448;-80
2021/08/19 01:16:55;;;;;;;3.40;3.10;;;;;;;19.73;56.51;94836.41;5073939;28;20436;-80
2021/08/19 01:19:23;;;;;;;4.70;3.27;;;;;;;19.77;56.20;94829.69;5073940;28;20430;-79
2021/08/19 01:35:38;;;;;;;5.13;3.13;;;;;;;19.61;55.05;94821.09;5073723;28;20418;-79
2021/08/19 01:38:05;;;;;;;3.60;3.30;;;;;;;19.65;55.19;94831.16;5073423;28;20457;-80
2021/08/19 01:40:31;;;;;;;3.57;3.10;;;;;;;19.60;56.05;94828.25;5073837;28;20546;-80
2021/08/19 01:43:07;;;;;;;4.57;3.00;;;;;;;19.77;55.75;94831.53;5074197;28;20824;-80
2021/08/19 01:45:34;;;;;;;4.37;3.27;;;;;;;19.79;53.91;94825.00;5073412;28;20530;-80
2021/08/19 01:48:01;;;;;;;5.07;3.20;;;;;;;19.81;54.62;94827.47;5073478;28;20433;-80
2021/08/19 01:50:28;;;;;;;6.33;3.37;;;;;;;19.83;54.51;94822.78;5073469;28;20840;-80
2021/08/19 01:52:56;;;;;;;3.93;3.20;;;;;;;19.84;54.76;94828.94;5055031;28;20533;-80
2021/08/19 01:55:23;;;;;;;3.60;2.80;;;;;;;19.69;53.91;94813.00;5073526;28;20879;-80
2021/08/19 01:57:50;;;;;;;4.03;3.13;;;;;;;19.55;54.84;94814.69;5073129;28;20435;-79
2021/08/19 02:00:18;;;;;;;5.37;2.93;;;;;;;19.62;55.77;94817.41;5074012;28;20521;-79
2021/08/19 02:02:45;;;;;;;5.10;3.23;;;;;;;19.65;54.18;94812.53;5074051;28;20429;-80
2021/08/19 02:05:12;;;;;;;3.13;2.83;;;;;;;19.63;53.91;94817.22;5055100;28;20792;-79
2021/08/19 02:07:39;;;;;;;4.67;3.10;;;;;;;19.67;54.16;94821.19;5054488;28;20476;-80
2021/08/19 02:10:08;;;;;;;3.40;3.10;;;;;;;19.66;53.98;94819.53;5073327;28;20574;-79
2021/08/19 02:12:35;;;;;;;4.30;2.80;;;;;;;19.72;54.24;94820.63;5073149;28;20453;-80
2021/08/19 02:15:02;;;;;;;3.50;3.20;;;;;;;19.82;54.16;94817.66;5073690;28;20550;-80
2021/08/19 02:17:29;;;;;;;4.37;3.20;;;;;;;19.93;52.99;94817.13;5073532;28;20537;-80
2021/08/19 02:19:56;;;;;;;3.70;2.87;;;;;;;20.03;52.79;94820.34;5073308;28;20436;-79
2021/08/19 02:22:23;;;;;;;4.50;3.10;;;;;;;20.08;52.49;94818.75;5072962;28;20434;-80
2021/08/19 02:24:50;;;;;;;6.07;3.17;;;;;;;20.11;52.25;94818.38;5073319;28;20457;-80
2021/08/19 02:27:18;;;;;;;5.40;2.60;;;;;;;20.12;52.20;94813.84;5073604;28;20977;-80
2021/08/19 02:29:45;;;;;;;4.50;3.10;;;;;;;20.18;52.60;94815.75;5073251;28;20481;-80
2021/08/19 02:32:12;;;;;;;4.87;2.83;;;;;;;20.24;52.78;94811.50;5072940;28;20435;-79
2021/08/19 02:34:39;;;;;;;3.00;2.80;;;;;;;20.27;52.17;94819.97;5073530;28;20450;-80
2021/08/19 02:37:06;;;;;;;3.80;2.60;;;;;;;20.32;51.52;94816.72;5072935;28;20526;-80
2021/08/19 02:39:33;;;;;;;6.33;3.17;;;;;;;20.30;51.47;94827.56;5073112;28;20476;-79
2021/08/19 02:42:00;;;;;;;3.97;2.80;;;;;;;20.23;52.28;94815.19;5073210;28;20445;-80
2021/08/19 02:44:29;;;;;;;3.40;2.50;;;;;;;20.36;51.37;94825.97;5054605;28;20855;-80
2021/08/19 02:46:56;;;;;;;5.80;2.87;;;;;;;20.36;51.48;94826.81;5073127;28;20435;-80
2021/08/19 02:49:24;;;;;;;6.00;2.73;;;;;;;20.33;53.05;94818.38;5073912;28;20799;-79
2021/08/19 02:51:51;;;;;;;7.20;3.67;;;;;;;20.40;53.12;94827.28;5073703;28;20787;-80
2021/08/19 02:54:18;;;;;;;4.90;3.20;;;;;;;20.47;53.91;94830.81;5072759;28;20445;-79
2021/08/19 02:56:45;;;;;;;3.00;2.80;;;;;;;20.58;55.10;94827.63;5072661;28;20443;-80
2021/08/19 02:59:12;;;;;;;5.97;3.47;;;;;;;20.62;56.22;94833.41;5073496;28;20790;-80
2021/08/19 03:01:40;;;;;;;4.53;3.60;;;;;;;20.70;56.92;94838.59;5072501;28;20428;-80
2021/08/19 03:04:07;;;;;;;6.23;4.20;;;;;;;20.71;57.12;94837.56;5072894;28;20458;-82
2021/08/19 03:06:34;;;;;;;3.93;3.20;;;;;;;20.68;57.66;94840.63;5072648;28;21049;-80
2021/08/19 03:09:01;;;;;;;6.63;3.57;;;;;;;20.65;57.76;94847.19;5073014;28;20520;-79
2021/08/19 03:11:28;;;;;;;4.00;3.63;;;;;;;20.61;58.32;94853.09;5072324;28;20486;-80
2021/08/19 03:13:55;;;;;;;3.40;3.07;;;;;;;20.58;58.19;94853.47;5073046;28;20467;-79
2021/08/19 03:16:22;;;;;;;5.50;3.77;;;;;;;20.56;57.84;94859.00;5073642;28;20449;-80
2021/08/19 03:18:51;;;;;;;5.73;3.43;;;;;;;20.61;57.37;94859.25;5077182;28;20513;-80
2021/08/19 03:21:21;;;;;;;4.77;3.20;;;;;;;20.63;57.49;94864.38;5076305;28;20520;-80
2021/08/19 03:23:48;;;;;;;6.87;3.00;;;;;;;20.51;58.42;94866.72;5058213;28;20503;-80
2021/08/19 03:26:15;;;;;;;5.80;3.47;;;;;;;20.47;58.51;94873.47;5076298;28;20536;-80
2021/08/19 03:28:42;;;;;;;8.00;3.63;;;;;;;20.44;59.07;94876.50;5076164;28;20440;-80
2021/08/19 03:31:09;;;;;;;3.47;3.10;;;;;;;20.32;59.53;94867.34;5076024;28;21029;-80
2021/08/19 03:33:37;;;;;;;4.80;3.00;;;;;;;20.28;59.62;94868.75;5076186;28;20428;-80
2021/08/19 03:36:06;;;;;;;6.30;3.77;;;;;;;20.21;60.04;94875.84;5075935;28;20435;-80
2021/08/19 03:38:33;;;;;;;3.83;3.53;;;;;;;20.11;60.47;94874.31;5076137;28;20436;-80
2021/08/19 03:41:00;;;;;;;7.60;3.47;;;;;;;20.10;60.44;94878.00;5076080;28;20868;-80
2021/08/19 03:43:27;;;;;;;3.60;3.30;;;;;;;20.11;60.11;94876.97;5075954;28;20522;-80
2021/08/19 03:45:54;;;;;;;3.60;3.27;;;;;;;20.13;60.50;94871.47;5075767;28;20528;-80
2021/08/19 03:48:21;;;;;;;3.60;3.30;;;;;;;20.13;60.10;94882.13;5040484;28;20435;-80
2021/08/19 03:50:48;;;;;;;6.30;3.17;;;;;;;19.99;60.83;94878.50;5075883;28;20471;-80
2021/08/19 03:53:17;;;;;;;4.57;3.50;;;;;;;19.91;60.93;94870.59;5040675;28;20531;-80
2021/08/19 03:55:44;;;;;;;4.53;3.70;;;;;;;19.93;60.99;94876.56;5075550;28;20441;-80
2021/08/19 03:58:11;;;;;;;3.93;3.43;;;;;;;19.88;60.70;94881.63;5075351;28;20433;-80
2021/08/19 04:00:39;;;;;;;4.30;3.80;;;;;;;19.80;61.02;94879.09;5075602;28;20527;-80
2021/08/19 04:03:06;;;;;;;3.90;3.60;;;;;;;19.81;61.22;94880.72;5057146;28;20475;-80
2021/08/19 04:05:33;;;;;;;4.60;3.50;;;;;;;19.72;61.96;94881.88;5075149;28;20441;-80
2021/08/19 04:07:59;;;;;;;6.03;3.43;;;;;;;19.79;62.05;94882.75;5075115;28;20435;-81
2021/08/19 04:10:28;;;;;;;4.13;3.80;;;;;;;19.88;61.85;94884.28;5075267;28;20852;-80
2021/08/19 04:12:55;;;;;;;4.20;3.43;;;;;;;20.01;60.87;94888.97;5075202;28;20448;-80
2021/08/19 04:15:22;;;;;;;6.93;4.03;;;;;;;20.26;59.49;94884.94;5075312;28;20448;-80
2021/08/19 04:17:52;;;;;;;4.97;3.80;;;;;;;20.48;58.73;94887.63;5075191;28;20440;-80
2021/08/19 04:20:19;;;;;;;5.73;3.70;;;;;;;20.82;58.43;94884.25;5075630;28;20432;-80
2021/08/19 04:22:46;;;;;;;4.53;3.60;;;;;;;21.36;57.22;94887.09;5074930;28;20433;-80
2021/08/19 04:25:14;;;;;;;4.70;3.20;;;;;;;21.94;54.31;94884.91;5074711;28;20451;-80
2021/08/19 04:27:42;;;;;;;3.90;3.50;;;;;;;22.35;52.74;94897.41;5074231;28;20422;-80
2021/08/19 04:30:10;;;;;;;5.10;3.40;;;;;;;22.86;51.42;94900.41;5074882;28;20993;-81
2021/08/19 04:32:37;;;;;;;3.50;3.20;;;;;;;23.25;50.58;94890.72;5074569;28;20920;-80
2021/08/19 04:35:05;;;;;;;4.87;4.10;;;;;;;23.65;49.31;94891.47;5074683;28;20435;-80
2021/08/19 04:37:34;;;;;;;7.97;3.80;;;;;;;23.91;47.98;94883.34;5074441;28;20524;-81
2021/08/19 04:40:01;;;;;;;6.13;4.00;;;;;;;24.27;47.39;94893.47;5075025;28;20446;-80
2021/08/19 04:42:28;;;;;;;4.10;3.27;;;;;;;24.55;46.67;94895.00;5074441;28;20526;-80
2021/08/19 04:44:56;;;;;;;4.70;3.23;;;;;;;24.70;45.82;94898.22;5074382;28;20452;-80
2021/08/19 04:47:23;;;;;;;7.90;4.50;;;;;;;24.97;45.24;94898.84;5074242;28;20440;-80
2021/08/19 04:49:50;;;;;;;4.20;3.80;;;;;;;25.20;44.55;94899.09;5074641;28;20448;-80
2021/08/19 04:52:17;;;;;;;4.13;2.93;;;;;;;25.46;43.97;94887.28;5055864;28;20834;-80
2021/08/19 04:54:44;;;;;;;4.10;3.00;;;;;;;25.67;43.55;94888.75;5074601;28;20521;-81
2021/08/19 04:57:11;;;;;;;6.33;3.70;;;;;;;25.85;42.93;94879.88;5074067;28;20441;-81
2021/08/19 04:59:38;;;;;;;3.50;3.20;;;;;;;25.97;42.18;94888.00;5074104;28;20431;-80
2021/08/19 05:02:06;;;;;;;4.77;4.00;;;;;;;26.04;41.72;94894.13;5074600;28;20437;-80
2021/08/19 05:04:33;;;;;;;4.67;3.23;;;;;;;26.08;41.24;94906.09;5073891;28;20799;-80
2021/08/19 05:07:00;;;;;;;5.10;4.60;;;;;;;26.25;41.05;94901.72;5073811;28;20572;-80
2021/08/19 05:09:27;;;;;;;8.00;5.67;;;;;;;26.39;40.71;94897.03;5074157;28;20516;-80
2021/08/19 05:11:54;;;;;;;3.83;3.47;;;;;;;26.59;41.95;94905.63;5055571;28;20972;-82
2021/08/19 05:14:22;;;;;;;5.17;3.23;;;;;;;26.80;39.65;94909.69;5075083;28;20446;-83
2021/08/19 05:16:49;;;;;;;4.27;3.37;;;;;;;26.64;39.50;94913.84;5055481;28;20528;-83
2021/08/19 05:19:17;;;;;;;3.37;3.07;;;;;;;27.03;40.26;94909.75;5073682;28;21147;-83
2021/08/19 05:21:44;;;;;;;3.47;3.17;;;;;;;27.59;38.99;94911.09;5073868;28;20509;-83
2021/08/19 05:24:11;;;;;;;5.40;2.97;;;;;;;27.91;37.56;94906.19;5073928;28;20512;-83
2021/08/19 05:33:21;;;;;;;5.40;3.57;;;;;;;27.61;36.99;94905.47;5073555;28;20443;-82
2021/08/19 05:35:50;;;;;;;24.03;6.10;;;;;;;27.73;55.89;94909.81;5073952;28;20591;-82
2021/08/19 05:38:17;;;;;;;9.50;4.30;;;;;;;27.85;48.96;94917.09;5073637;28;20433;-82
2021/08/19 05:40:44;;;;;;;4.13;3.83;;;;;;;27.42;34.51;94915.53;5055534;28;20520;-81
2021/08/19 05:43:11;;;;;;;5.40;3.70;;;;;;;27.70;48.05;94909.47;5055137;28;20441;-82
2021/08/19 05:45:41;;;;;;;7.20;3.80;;;;;;;27.79;45.00;94907.25;5073428;28;20441;-83
2021/08/19 05:48:08;;;;;;;8.17;3.50;;;;;;;27.03;35.17;94909.75;5073479;28;20492;-82
2021/08/19 05:50:35;;;;;;;3.60;3.30;;;;;;;26.93;37.71;94905.97;5074311;28;21002;-82
2021/08/19 05:53:05;;;;;;;8.17;3.77;;;;;;;27.00;42.34;94906.72;5073916;28;20429;-84
2021/08/19 05:55:32;;;;;;;11.13;3.83;;;;;;;26.92;35.67;94910.53;5073407;28;20449;-84
2021/08/19 05:57:59;;;;;;;4.17;3.80;;;;;;;26.60;35.56;94903.75;5073202;28;20864;-84
2021/08/19 06:00:27;;;;;;;7.93;3.27;;;;;;;26.09;39.63;94897.78;5073525;28;20435;-84
2021/08/19 06:02:54;;;;;;;4.23;3.37;;;;;;;26.24;35.99;94895.50;5073691;28;20472;-84
2021/08/19 06:05:21;;;;;;;4.27;3.40;;;;;;;26.23;38.88;94893.03;5073581;28;20527;-84
2021/08/19 06:07:48;;;;;;;4.60;3.60;;;;;;;26.16;35.50;94900.38;5072919;28;20575;-83
2021/08/19 06:10:17;;;;;;;4.90;3.77;;;;;;;26.34;36.13;94895.03;5073175;28;20520;-84
2021/08/19 06:12:44;;;;;;;6.40;3.33;;;;;;;25.79;37.98;94888.84;5073033;28;20521;-82
2021/08/19 06:15:11;;;;;;;4.93;3.57;;;;;;;25.74;37.39;94889.50;5074044;28;20546;-81
2021/08/19 06:17:38;;;;;;;6.27;3.67;;;;;;;25.70;36.07;94885.59;5073295;28;20523;-80
2021/08/19 06:20:07;;;;;;;4.77;3.87;;;;;;;25.67;37.32;94882.53;5038724;28;20507;-80
2021/08/19 06:22:34;;;;;;;5.90;3.10;;;;;;;25.46;36.65;94889.16;5072937;28;20439;-81
2021/08/19 06:41:51;;;;;;;4.70;3.33;;;;;;;25.02;40.17;94874.88;5071779;28;20479;-80
2021/08/19 06:44:18;;;;;;;3.83;3.40;;;;;;;25.24;37.54;94876.13;5073283;28;20534;-81
2021/08/19 06:46:44;;;;;;;4.60;3.30;;;;;;;25.51;38.20;94873.19;5072686;28;20958;-81
2021/08/19 06:49:11;;;;;;;3.97;3.33;;;;;;;26.09;36.55;94878.13;5072289;28;20447;-81
2021/08/19 06:51:38;;;;;;;4.10;3.70;;;;;;;26.13;35.53;94882.84;5072985;28;20567;-81
2021/08/19 06:54:05;;;;;;;5.17;3.50;;;;;;;26.13;35.55;94874.75;5075673;28;20458;-81
2021/08/19 06:56:33;;;;;;;4.20;3.57;;;;;;;25.98;35.49;94870.81;5075353;28;20538;-81
2021/08/19 06:59:01;;;;;;;4.27;3.70;;;;;;;25.71;36.43;94878.34;5076527;28;20446;-81
2021/08/19 07:01:28;;;;;;;5.03;3.77;;;;;;;25.68;36.22;94868.88;5057771;28;20538;-81
2021/08/19 07:03:55;;;;;;;5.40;3.23;;;;;;;25.73;36.74;94877.09;5076787;28;20553;-81
2021/08/19 07:06:22;;;;;;;4.87;3.00;;;;;;;26.05;37.75;94871.56;5076812;28;21149;-83
2021/08/19 07:08:49;;;;;;;4.20;3.30;;;;;;;26.43;37.45;94877.50;5076706;28;20492;-83
2021/08/19 07:11:16;;;;;;;5.90;3.60;;;;;;;26.67;36.02;94882.97;5076543;28;20587;-83
2021/08/19 07:13:43;;;;;;;3.37;3.07;;;;;;;27.04;37.79;94878.25;5076763;28;20559;-82
2021/08/19 07:16:11;;;;;;;9.03;3.70;;;;;;;27.24;35.58;94880.63;5076197;28;20558;-83
2021/08/19 07:18:38;;;;;;;4.70;2.83;;;;;;;27.51;36.44;94884.50;5075634;28;20429;-82
2021/08/19 07:21:05;;;;;;;4.43;3.30;;;;;;;27.69;32.06;94876.31;5075834;28;20512;-83
2021/08/19 07:23:33;;;;;;;3.50;3.20;;;;;;;27.96;34.85;94878.47;5075973;28;20996;-83
2021/08/19 07:26:00;;;;;;;5.30;3.40;;;;;;;28.04;32.04;94884.31;5076054;28;20527;-83
2021/08/19 07:28:27;;;;;;;4.67;3.50;;;;;;;28.19;32.48;94873.03;5075527;28;20436;-84
2021/08/19 07:30:54;;;;;;;6.07;3.27;;;;;;;28.32;30.07;94880.88;5074743;28;20527;-83
2021/08/19 07:33:22;;;;;;;7.70;3.57;;;;;;;28.04;31.66;94880.81;5056502;28;20806;-83
2021/08/19 07:35:49;;;;;;;3.60;3.07;;;;;;;27.47;30.90;94883.34;5074984;28;20449;-83
2021/08/19 07:38:18;;;;;;;6.23;3.20;;;;;;;27.28;31.53;94879.09;5075033;28;20459;-83
2021/08/19 07:40:46;;;;;;;3.83;3.50;;;;;;;27.31;32.17;94878.63;5074304;28;20456;-83
2021/08/19 07:43:13;;;;;;;4.50;3.23;;;;;;;27.72;31.68;94875.81;5054433;28;20444;-84
2021/08/19 07:45:40;;;;;;;3.03;2.57;;;;;;;28.04;31.63;94876.22;5074739;28;20536;-83
2021/08/19 07:48:09;;;;;;;4.00;3.07;;;;;;;28.43;31.73;94881.91;5039166;28;20524;-84
2021/08/19 07:50:37;;;;;;;3.23;2.93;;;;;;;28.50;30.19;94868.25;5073438;28;20448;-84
2021/08/19 07:53:05;;;;;;;5.40;3.77;;;;;;;28.31;30.51;94873.81;5073564;28;20476;-83
2021/08/19 07:55:32;;;;;;;6.63;3.40;;;;;;;28.40;31.98;94870.75;5054430;28;20436;-84
2021/08/19 07:57:59;;;;;;;3.77;3.00;;;;;;;28.46;31.07;94873.31;5074446;28;20463;-84
2021/08/19 08:00:29;;;;;;;3.10;2.80;;;;;;;28.66;30.38;94864.78;5074546;28;20531;-84
2021/08/19 08:02:57;;;;;;;3.20;2.30;;;;;;;28.94;31.12;94867.47;5039150;28;21004;-84
2021/08/19 08:05:26;;;;;;;4.23;2.90;;;;;;;29.20;29.92;94859.75;5075859;28;20518;-84
2021/08/19 08:08:03;;;;;;;3.10;2.60;;;;;;;29.20;29.55;94862.44;5076616;28;20469;-81
2021/08/19 08:10:30;;;;;;;4.20;2.83;;;;;;;28.77;29.59;94866.59;5066219;28;20531;-84
2021/08/19 08:12:58;;;;;;;8.60;3.00;;;;;;;27.96;29.88;94865.00;5074714;28;20839;-84
2021/08/19 08:15:25;;;;;;;6.43;2.67;;;;;;;27.89;30.84;94864.31;5074526;28;20445;-84
2021/08/19 08:24:37;;;;;;;4.30;3.20;;;;;;;28.17;31.23;94850.03;5074837;28;20772;-83
2021/08/19 08:27:04;;;;;;;5.00;2.80;;;;;;;28.33;30.54;94846.59;5040312;28;20425;-84
2021/08/19 08:29:31;;;;;;;6.20;2.87;;;;;;;28.67;31.28;94839.41;5074807;28;20920;-84
2021/08/19 08:32:01;;;;;;;4.90;2.73;;;;;;;28.85;29.90;94841.91;5039922;28;20523;-85
2021/08/19 08:34:28;;;;;;;7.80;3.67;;;;;;;28.69;29.77;94835.41;5074632;28;20445;-85
2021/08/19 08:36:55;;;;;;;4.10;3.33;;;;;;;28.64;29.48;94832.63;5075580;28;20785;-84
2021/08/19 08:39:24;;;;;;;3.63;3.07;;;;;;;28.66;29.75;94832.38;5039972;28;20524;-84
2021/08/19 08:41:53;;;;;;;3.90;2.60;;;;;;;28.51;28.87;94832.91;5074747;28;20465;-84
2021/08/19 08:44:21;;;;;;;5.63;3.43;;;;;;;28.03;30.69;94830.59;5074626;28;20523;-84
2021/08/19 08:46:49;;;;;;;3.40;2.90;;;;;;;28.02;30.63;94834.34;5074328;28;20456;-85
2021/08/19 08:49:16;;;;;;;3.90;3.50;;;;;;;28.08;31.24;94836.13;5074810;28;20504;-86
2021/08/19 08:51:51;;;;;;;5.80;2.77;;;;;;;27.67;30.31;94824.47;5075053;28;20465;-82
2021/08/19 08:54:18;;;;;;;6.10;2.93;;;;;;;28.02;32.17;94826.25;5074132;28;20451;-85
2021/08/19 08:56:45;;;;;;;3.00;2.70;;;;;;;28.23;30.93;94822.91;5073521;28;20487;-84
2021/08/19 08:59:13;;;;;;;2.80;2.60;;;;;;;28.28;29.99;94814.13;5073546;28;20440;-83
2021/08/19 09:01:41;;;;;;;5.53;3.50;;;;;;;28.20;28.82;94812.59;5074345;28;20437;-84
2021/08/19 09:04:07;;;;;;;5.77;3.57;;;;;;;28.02;30.62;94813.59;5073782;28;20441;-84
2021/08/19 09:06:37;;;;;;;4.43;2.60;;;;;;;27.98;30.22;94811.63;5076529;28;20519;-84
2021/08/19 09:09:15;;;;;;;3.10;2.80;;;;;;;28.00;29.68;94801.41;5073717;28;20425;-83
2021/08/19 09:11:43;;;;;;;4.70;2.27;;;;;;;28.03;29.02;94800.91;5074137;28;20477;-83
2021/08/19 09:14:21;;;;;;;3.80;2.60;;;;;;;27.93;29.88;94798.84;5073751;28;20555;-83
2021/08/19 09:16:48;;;;;;;3.37;2.30;;;;;;;28.13;28.66;94797.63;5038737;28;20435;-83
2021/08/19 09:19:16;;;;;;;3.40;2.40;;;;;;;28.12;28.92;94799.50;5073372;28;20490;-84
2021/08/19 09:21:48;;;;;;;3.63;2.57;;;;;;;28.17;29.05;94802.28;5072962;28;20453;-83
2021/08/19 09:24:17;;;;;;;5.70;3.20;;;;;;;28.23;29.79;94806.72;5072167;28;20541;-84
2021/08/19 09:26:45;;;;;;;4.57;3.60;;;;;;;28.15;29.74;94803.59;5073313;28;20449;-83
2021/08/19 09:29:17;;;;;;;6.10;3.13;;;;;;;28.40;30.94;94800.56;5073152;28;20523;-83
2021/08/19 09:31:46;;;;;;;10.53;3.40;;;;;;;28.51;29.90;94794.28;5073318;28;20900;-84
2021/08/19 09:34:13;;;;;;;4.67;3.30;;;;;;;28.69;29.37;94786.78;5073510;28;20901;-84
2021/08/19 09:36:41;;;;;;;3.27;2.80;;;;;;;28.77;29.99;94784.72;5038742;28;20996;-83
2021/08/19 09:39:09;;;;;;;5.73;3.20;;;;;;;28.88;28.71;94781.16;5072839;28;20536;-83
2021/08/19 09:41:51;;;;;;;4.40;2.67;;;;;;;28.94;27.93;94775.59;5038466;28;20446;-84
2021/08/19 09:44:29;;;;;;;6.43;3.00;;;;;;;28.79;27.92;94778.00;5072920;28;20445;-84
2021/08/19 09:46:57;;;;;;;3.30;3.00;;;;;;;28.79;27.77;94771.78;5072906;28;20925;-83
2021/08/19 09:49:27;;;;;;;4.00;3.10;;;;;;;28.81;28.26;94773.19;5073513;28;20439;-84
2021/08/19 09:52:06;;;;;;;4.60;2.70;;;;;;;28.72;27.80;94769.25;5072138;28;21038;-84
2021/08/19 09:57:56;;;;;;;5.60;3.00;;;;;;;28.93;27.95;94756.94;5072571;28;20424;-83
2021/08/19 10:00:24;;;;;;;2.80;2.60;;;;;;;29.00;29.36;94746.78;5063941;28;20847;-84
2021/08/19 10:02:55;;;;;;;4.40;2.57;;;;;;;29.13;28.67;94745.59;5072387;28;20452;-84
2021/08/19 10:05:22;;;;;;;4.50;2.60;;;;;;;28.89;27.54;94750.38;5072152;28;20441;-84
2021/08/19 10:07:49;;;;;;;7.63;3.97;;;;;;;28.88;28.99;94749.53;5073058;28;20475;-84
2021/08/19 10:10:17;;;;;;;5.20;2.40;;;;;;;28.77;28.09;94745.03;5072867;28;20440;-84
2021/08/19 10:12:45;;;;;;;4.20;2.90;;;;;;;28.66;28.29;94735.16;5037943;28;21143;-84
2021/08/19 10:15:13;;;;;;;6.00;2.43;;;;;;;28.67;27.39;94734.09;5073347;28;20455;-84
2021/08/19 10:17:45;;;;;;;3.73;3.10;;;;;;;28.71;28.89;94724.41;5073279;28;20512;-81
2021/08/19 10:20:19;;;;;;;2.53;2.33;;;;;;;28.73;27.12;94727.69;5073273;28;20436;-83
2021/08/19 10:36:54;;;;;;;2.37;2.17;;;;;;;27.54;28.85;94724.16;5077019;28;20389;-85
2021/08/19 10:39:39;;;;;;;13.33;3.23;;;;;;;27.62;25.92;94723.81;4995617;28;20536;-83
2021/08/19 10:42:11;;;;;;;14.40;4.30;;;;;;;27.72;26.91;94719.41;4995780;28;20451;-86
2021/08/19 10:44:43;;;;;;;4.83;3.63;;;;;;;27.87;26.90;94701.91;4996072;28;21048;-86
2021/08/19 10:47:10;;;;;;;4.60;3.10;;;;;;;27.83;27.39;94719.63;4995312;28;20451;-84
2021/08/19 10:49:40;;;;;;;3.17;2.50;;;;;;;27.95;30.43;94717.69;4995482;28;20476;-85
2021/08/19 10:52:31;;;;;;;9.00;3.00;;;;;;;28.10;27.68;94714.47;4995221;28;20480;-84
2021/08/19 10:55:13;;;;;;;3.23;2.23;;;;;;;27.98;26.20;94711.81;4995201;28;20499;-84
2021/08/19 10:58:00;;;;;;;2.43;2.23;;;;;;;27.87;25.89;94710.81;4995387;28;20530;-84
2021/08/19 11:00:39;;;;;;;6.03;2.60;;;;;;;27.92;29.25;94702.00;4937505;29;21003;-85
2021/08/19 11:03:06;;;;;;;2.70;2.00;;;;;;;28.02;26.07;94710.25;4936812;29;20551;-83
2021/08/19 11:05:55;;;;;;;7.13;2.70;;;;;;;28.00;29.56;94710.50;4917788;29;20470;-83
2021/08/19 11:08:47;;;;;;;2.30;2.10;;;;;;;28.13;27.92;94697.78;4930340;29;20959;-84
2021/08/19 11:21:18;;;;;;;3.87;2.40;;;;;;;28.50;26.45;94690.06;5034054;28;20979;-85
2021/08/19 11:23:48;;;;;;;3.13;2.20;;;;;;;28.53;25.48;94689.56;5033917;28;20447;-85
2021/08/19 11:26:19;;;;;;;4.80;2.80;;;;;;;28.45;25.92;94696.19;5033946;28;20486;-85
2021/08/19 11:28:49;;;;;;;5.00;2.83;;;;;;;28.43;26.23;94687.53;5033884;28;20434;-84
2021/08/19 11:31:19;;;;;;;3.30;2.57;;;;;;;28.43;26.30;94687.53;5033948;28;20438;-85
2021/08/19 11:33:47;;;;;;;4.00;2.70;;;;;;;28.36;27.08;94686.88;5034459;28;20500;-85
2021/08/19 11:36:16;;;;;;;3.50;2.80;;;;;;;28.42;26.24;94683.19;5034474;28;20518;-84
2021/08/19 11:38:58;;;;;;;5.40;2.53;;;;;;;28.49;26.31;94674.91;5076929;28;20509;-84
2021/08/19 11:41:25;;;;;;;3.50;2.90;;;;;;;28.54;26.46;94672.28;5076366;28;20441;-84
2021/08/19 11:43:59;;;;;;;3.20;2.60;;;;;;;28.59;26.35;94672.38;5076807;28;20520;-84
2021/08/19 11:46:27;;;;;;;4.67;2.40;;;;;;;28.51;25.67;94673.59;5076957;28;20429;-85
2021/08/19 11:48:56;;;;;;;3.23;2.93;;;;;;;28.49;25.98;94669.53;5076305;28;20449;-84
2021/08/19 11:51:25;;;;;;;3.60;2.43;;;;;;;28.46;26.53;94667.31;5075811;28;20445;-84
2021/08/19 11:53:54;;;;;;;6.70;2.90;;;;;;;28.43;26.13;94667.81;5075319;28;20559;-84
2021/08/19 11:56:25;;;;;;;2.83;2.63;;;;;;;28.45;25.96;94663.81;5075286;28;20516;-84
2021/08/19 11:59:00;;;;;;;3.60;2.80;;;;;;;28.43;25.76;94665.13;5075800;28;20425;-84
2021/08/19 12:01:26;;;;;;;3.60;2.87;;;;;;;28.43;26.75;94662.41;5075553;28;20889;-84
2021/08/19 12:10:44;;;;;;;6.40;2.90;;;;;;;28.69;25.60;94650.94;5059255;28;20544;-84
2021/08/19 12:13:13;;;;;;;12.27;3.73;;;;;;;28.74;25.44;94652.88;5074956;28;21073;-84
2021/08/19 12:15:40;;;;;;;3.10;2.80;;;;;;;28.76;25.76;94646.16;5074933;28;20451;-84
2021/08/19 12:18:08;;;;;;;3.47;3.17;;;;;;;28.77;26.26;94647.78;5075077;28;20532;-84
2021/08/19 12:20:37;;;;;;;3.53;2.60;;;;;;;28.68;25.66;94642.00;5075261;28;20972;-85
2021/08/19 12:23:16;;;;;;;3.60;2.97;;;;;;;28.55;25.44;94636.94;5075102;28;20425;-85
2021/08/19 12:25:43;;;;;;;3.97;2.53;;;;;;;28.44;26.09;94639.75;5075326;28;20443;-84
2021/08/19 12:28:12;;;;;;;4.70;2.80;;;;;;;28.35;26.50;94636.66;5075137;28;20453;-84
2021/08/19 12:30:57;;;;;;;6.67;3.30;;;;;;;28.26;26.74;94636.22;5074928;28;20433;-85
2021/08/19 12:33:35;;;;;;;3.27;3.00;;;;;;;28.26;27.96;94630.84;5074603;28;20469;-84
2021/08/19 12:36:13;;;;;;;7.53;3.57;;;;;;;28.33;26.74;94630.66;5075045;28;20543;-84
2021/08/19 12:38:40;;;;;;;3.30;2.87;;;;;;;28.46;27.92;94624.94;5072985;28;20524;-84
2021/08/19 12:41:18;;;;;;;3.83;2.47;;;;;;;28.45;27.16;94630.59;5039819;28;20451;-84
2021/08/19 12:43:48;;;;;;;6.53;3.37;;;;;;;28.46;27.34;94624.94;5074452;28;21016;-83
2021/08/19 12:46:16;;;;;;;3.73;3.40;;;;;;;28.49;26.96;94618.22;5074266;28;20437;-82
2021/08/19 12:48:44;;;;;;;8.17;2.57;;;;;;;28.36;27.73;94614.00;5074196;28;20435;-82
2021/08/19 12:51:18;;;;;;;3.00;2.80;;;;;;;28.38;27.80;94617.28;5074083;28;20445;-82
2021/08/19 12:54:05;;;;;;;3.93;2.70;;;;;;;28.36;28.27;94617.50;5074218;28;20472;-81
2021/08/19 12:56:32;;;;;;;4.23;3.27;;;;;;;28.30;28.22;94618.47;5074178;28;20507;-82
2021/08/19 12:59:00;;;;;;;6.80;3.47;;;;;;;28.26;27.78;94617.34;5074368;28;20531;-82